الصفحة الرئيسية
METAR-TAF:

METAR-TAF

مطار :

فونافوتي, توفالو

دائرة عرض: 08-31S, خط طول: 179-13E, ارتفاع: 1 متر

مراقبة الطقس الحالي

تاريخ ووقت الإصدار 11 دقيقة قبل الساعة 08:00UTC
ريح 4 عقدة من الشرق/الشمال الشرقي
درجة الحرارة 30°درجة مئوية
الرطوبة 75%
ضغط 1009 hPa
الرؤية 10 كم أو أكثر
غيوم متفرقة على ارتفاع 1800 قدم, مزن ركامية عمودية.
غيوم مفككة على ارتفاع 31000 قدم

METAR: NGFU 310800Z 07004KT 9999 SCT018TCU BKN310 30/25 Q1009

زمن: 20:11 (08:11 UTC)

توقعات

تاريخ ووقت الإصدار 2ساعات و 58 دقيقة قبل الساعة 05:13UTC
التوقعات صالحة من31 الساعة 06 UTC إلى 01 الساعة 06 UTC
ريح 6 عقدة من الشمال/الشمال الشرقي
الرؤية 10 كم أو أكثر
غيوم متفرقة على ارتفاع 1800 قدم
غيوم مفككة على ارتفاع 10000 قدم
نظرية الاحتمالات 40% :
مؤقت
من 31 الساعة 06 UTC إلى 31 الساعة 12 UTC
الرؤية: 3000 متر
غيوم مفككة على ارتفاع 1500 قدم
غيوم قليلة على ارتفاع 1600 قدم, مزنة ركامية.
عاصفة رعدية, مطر

TAF: NGFU 310513Z 3106/0106 02006KT 9999 SCT018 BKN100 PROB40 TEMPO 3106/3112 3000 TSRA BKN015 FEW016CB

أرصاد الطقس والتوقعات من أكثر من 4000 مطار (تقارير الطقس للمطار METAR والتنبؤ بالطقس بالمطارTAF).

المحطات المتاحة هي النقط الصفراء والحمراء على الخريطة.

حرك المؤشر فوق النقطة لمعرفة اسم المحطة.

ثم انقر لمعرفة أرصاد وتوقعات الطقس.

لتغيير الخارطة: اضغط على الأزرار الخضراء مع رمز الصليب الأسود للتكبير. على الزر الأخضر مع شرطة للتصغير، أو على الأسهم الخضراء للخرائط المجاورة.


METAR-TAF: